sensor_id;sensor_type;location;lat;lon;timestamp;P1;durP1;ratioP1;P2;durP2;ratioP2
4957;SDS011;2494;51.872;9.688;2023-04-01T00:02:25;3.97;;;1.70;;
4957;SDS011;2494;51.872;9.688;2023-04-01T00:05:11;3.13;;;1.30;;
4957;SDS011;2494;51.872;9.688;2023-04-01T00:07:58;3.80;;;1.20;;
4957;SDS011;2494;51.872;9.688;2023-04-01T00:10:44;3.40;;;1.27;;
4957;SDS011;2494;51.872;9.688;2023-04-01T00:13:29;4.73;;;1.20;;
4957;SDS011;2494;51.872;9.688;2023-04-01T00:16:15;3.40;;;1.40;;
4957;SDS011;2494;51.872;9.688;2023-04-01T00:19:02;4.30;;;1.40;;
4957;SDS011;2494;51.872;9.688;2023-04-01T00:21:48;2.40;;;1.50;;
4957;SDS011;2494;51.872;9.688;2023-04-01T00:24:34;2.90;;;1.20;;
4957;SDS011;2494;51.872;9.688;2023-04-01T00:27:19;3.33;;;1.23;;
4957;SDS011;2494;51.872;9.688;2023-04-01T00:30:05;1.87;;;1.03;;
4957;SDS011;2494;51.872;9.688;2023-04-01T00:32:51;2.90;;;1.10;;
4957;SDS011;2494;51.872;9.688;2023-04-01T00:35:36;1.80;;;1.07;;
4957;SDS011;2494;51.872;9.688;2023-04-01T00:38:21;1.50;;;1.40;;
4957;SDS011;2494;51.872;9.688;2023-04-01T00:41:08;1.80;;;1.27;;
4957;SDS011;2494;51.872;9.688;2023-04-01T00:44:11;3.10;;;0.90;;
4957;SDS011;2494;51.872;9.688;2023-04-01T00:46:58;3.33;;;1.57;;
4957;SDS011;2494;51.872;9.688;2023-04-01T00:49:45;2.57;;;1.00;;
4957;SDS011;2494;51.872;9.688;2023-04-01T00:52:30;1.10;;;1.00;;
4957;SDS011;2494;51.872;9.688;2023-04-01T00:55:18;1.97;;;1.10;;
4957;SDS011;2494;51.872;9.688;2023-04-01T00:58:07;3.03;;;1.23;;
4957;SDS011;2494;51.872;9.688;2023-04-01T01:00:54;2.37;;;1.20;;
4957;SDS011;2494;51.872;9.688;2023-04-01T01:03:40;3.37;;;1.10;;
4957;SDS011;2494;51.872;9.688;2023-04-01T01:06:28;1.90;;;1.10;;
4957;SDS011;2494;51.872;9.688;2023-04-01T01:09:20;4.30;;;1.10;;
4957;SDS011;2494;51.872;9.688;2023-04-01T01:12:10;2.73;;;0.97;;
4957;SDS011;2494;51.872;9.688;2023-04-01T01:15:00;2.17;;;1.20;;
4957;SDS011;2494;51.872;9.688;2023-04-01T01:17:48;2.50;;;1.27;;
4957;SDS011;2494;51.872;9.688;2023-04-01T01:23:43;8.20;;;1.37;;
4957;SDS011;2494;51.872;9.688;2023-04-01T01:26:40;2.80;;;1.10;;
4957;SDS011;2494;51.872;9.688;2023-04-01T01:29:32;2.50;;;1.20;;
4957;SDS011;2494;51.872;9.688;2023-04-01T01:35:26;3.33;;;1.63;;
4957;SDS011;2494;51.872;9.688;2023-04-01T01:38:14;7.03;;;1.50;;
4957;SDS011;2494;51.872;9.688;2023-04-01T01:41:00;1.80;;;1.17;;
4957;SDS011;2494;51.872;9.688;2023-04-01T01:43:47;4.00;;;2.63;;
4957;SDS011;2494;51.872;9.688;2023-04-01T01:46:33;1.60;;;1.50;;
4957;SDS011;2494;51.872;9.688;2023-04-01T01:49:18;3.13;;;1.77;;
4957;SDS011;2494;51.872;9.688;2023-04-01T01:52:05;1.90;;;1.23;;
4957;SDS011;2494;51.872;9.688;2023-04-01T01:54:50;2.50;;;1.73;;
4957;SDS011;2494;51.872;9.688;2023-04-01T01:57:36;4.40;;;1.80;;
4957;SDS011;2494;51.872;9.688;2023-04-01T02:00:22;3.90;;;1.53;;
4957;SDS011;2494;51.872;9.688;2023-04-01T02:03:07;2.77;;;2.00;;
4957;SDS011;2494;51.872;9.688;2023-04-01T02:05:53;1.93;;;1.40;;
4957;SDS011;2494;51.872;9.688;2023-04-01T02:08:42;1.90;;;1.80;;
4957;SDS011;2494;51.872;9.688;2023-04-01T02:11:29;5.10;;;1.60;;
4957;SDS011;2494;51.872;9.688;2023-04-01T02:14:16;2.47;;;1.03;;
4957;SDS011;2494;51.872;9.688;2023-04-01T02:17:03;5.27;;;1.60;;
4957;SDS011;2494;51.872;9.688;2023-04-01T02:19:52;1.43;;;1.17;;
4957;SDS011;2494;51.872;9.688;2023-04-01T02:22:38;5.37;;;1.40;;
4957;SDS011;2494;51.872;9.688;2023-04-01T02:25:27;1.67;;;1.20;;
4957;SDS011;2494;51.872;9.688;2023-04-01T02:28:13;2.93;;;1.17;;
4957;SDS011;2494;51.872;9.688;2023-04-01T02:31:03;2.27;;;1.20;;
4957;SDS011;2494;51.872;9.688;2023-04-01T02:33:49;2.53;;;1.17;;
4957;SDS011;2494;51.872;9.688;2023-04-01T02:36:35;1.03;;;0.90;;
4957;SDS011;2494;51.872;9.688;2023-04-01T02:39:21;1.30;;;1.10;;
4957;SDS011;2494;51.872;9.688;2023-04-01T02:42:07;4.73;;;1.10;;
4957;SDS011;2494;51.872;9.688;2023-04-01T02:44:53;2.40;;;1.00;;
4957;SDS011;2494;51.872;9.688;2023-04-01T02:47:38;1.73;;;1.10;;
4957;SDS011;2494;51.872;9.688;2023-04-01T02:50:23;3.93;;;1.10;;
4957;SDS011;2494;51.872;9.688;2023-04-01T02:53:08;1.50;;;1.30;;
4957;SDS011;2494;51.872;9.688;2023-04-01T02:55:54;2.00;;;1.00;;
4957;SDS011;2494;51.872;9.688;2023-04-01T02:58:41;2.23;;;1.20;;
4957;SDS011;2494;51.872;9.688;2023-04-01T03:01:26;2.53;;;1.10;;
4957;SDS011;2494;51.872;9.688;2023-04-01T03:04:11;1.83;;;1.10;;
4957;SDS011;2494;51.872;9.688;2023-04-01T03:06:56;2.03;;;1.50;;
4957;SDS011;2494;51.872;9.688;2023-04-01T03:09:42;1.70;;;1.33;;
4957;SDS011;2494;51.872;9.688;2023-04-01T03:12:27;4.10;;;1.50;;
4957;SDS011;2494;51.872;9.688;2023-04-01T03:15:14;1.90;;;1.20;;
4957;SDS011;2494;51.872;9.688;2023-04-01T03:17:59;2.33;;;1.30;;
4957;SDS011;2494;51.872;9.688;2023-04-01T03:20:45;1.77;;;1.40;;
4957;SDS011;2494;51.872;9.688;2023-04-01T03:23:32;1.50;;;1.33;;
4957;SDS011;2494;51.872;9.688;2023-04-01T03:26:17;2.83;;;1.47;;
4957;SDS011;2494;51.872;9.688;2023-04-01T03:29:02;4.87;;;1.30;;
4957;SDS011;2494;51.872;9.688;2023-04-01T03:31:50;3.17;;;1.20;;
4957;SDS011;2494;51.872;9.688;2023-04-01T03:34:35;4.50;;;1.13;;
4957;SDS011;2494;51.872;9.688;2023-04-01T03:37:22;2.10;;;1.20;;
4957;SDS011;2494;51.872;9.688;2023-04-01T03:40:08;2.40;;;1.13;;
4957;SDS011;2494;51.872;9.688;2023-04-01T03:42:53;6.30;;;3.47;;
4957;SDS011;2494;51.872;9.688;2023-04-01T03:45:43;1.80;;;1.13;;
4957;SDS011;2494;51.872;9.688;2023-04-01T03:48:32;5.43;;;1.80;;
4957;SDS011;2494;51.872;9.688;2023-04-01T03:51:18;2.83;;;1.10;;
4957;SDS011;2494;51.872;9.688;2023-04-01T03:54:03;1.83;;;1.17;;
4957;SDS011;2494;51.872;9.688;2023-04-01T03:56:48;1.63;;;1.20;;
4957;SDS011;2494;51.872;9.688;2023-04-01T03:59:34;1.57;;;1.37;;
4957;SDS011;2494;51.872;9.688;2023-04-01T04:02:19;2.50;;;1.20;;
4957;SDS011;2494;51.872;9.688;2023-04-01T04:05:07;1.00;;;1.00;;
4957;SDS011;2494;51.872;9.688;2023-04-01T04:07:53;2.30;;;1.43;;
4957;SDS011;2494;51.872;9.688;2023-04-01T04:10:39;1.53;;;1.43;;
4957;SDS011;2494;51.872;9.688;2023-04-01T04:13:25;1.83;;;1.20;;
4957;SDS011;2494;51.872;9.688;2023-04-01T04:16:11;1.33;;;1.10;;
4957;SDS011;2494;51.872;9.688;2023-04-01T04:18:57;1.90;;;1.17;;
4957;SDS011;2494;51.872;9.688;2023-04-01T04:21:44;2.27;;;1.47;;
4957;SDS011;2494;51.872;9.688;2023-04-01T04:24:30;1.90;;;1.33;;
4957;SDS011;2494;51.872;9.688;2023-04-01T04:27:15;8.80;;;1.73;;
4957;SDS011;2494;51.872;9.688;2023-04-01T04:30:01;3.80;;;1.80;;
4957;SDS011;2494;51.872;9.688;2023-04-01T04:32:47;4.80;;;1.70;;
4957;SDS011;2494;51.872;9.688;2023-04-01T04:35:32;2.33;;;1.73;;
4957;SDS011;2494;51.872;9.688;2023-04-01T04:38:23;3.13;;;1.53;;
4957;SDS011;2494;51.872;9.688;2023-04-01T04:41:09;2.23;;;1.70;;
4957;SDS011;2494;51.872;9.688;2023-04-01T04:43:56;2.60;;;1.70;;
4957;SDS011;2494;51.872;9.688;2023-04-01T04:46:43;2.00;;;1.80;;
4957;SDS011;2494;51.872;9.688;2023-04-01T04:49:29;2.80;;;2.00;;
4957;SDS011;2494;51.872;9.688;2023-04-01T04:52:14;1.97;;;1.77;;
4957;SDS011;2494;51.872;9.688;2023-04-01T04:55:02;3.13;;;1.60;;
4957;SDS011;2494;51.872;9.688;2023-04-01T04:57:49;3.83;;;2.23;;
4957;SDS011;2494;51.872;9.688;2023-04-01T05:00:34;2.57;;;1.60;;
4957;SDS011;2494;51.872;9.688;2023-04-01T05:03:21;3.43;;;2.10;;
4957;SDS011;2494;51.872;9.688;2023-04-01T05:06:07;2.30;;;1.53;;
4957;SDS011;2494;51.872;9.688;2023-04-01T05:08:56;2.77;;;1.83;;
4957;SDS011;2494;51.872;9.688;2023-04-01T05:11:44;8.60;;;2.00;;
4957;SDS011;2494;51.872;9.688;2023-04-01T05:14:31;1.80;;;1.70;;
4957;SDS011;2494;51.872;9.688;2023-04-01T05:17:18;4.47;;;2.00;;
4957;SDS011;2494;51.872;9.688;2023-04-01T05:20:11;3.03;;;2.10;;
4957;SDS011;2494;51.872;9.688;2023-04-01T05:22:57;5.07;;;2.10;;
4957;SDS011;2494;51.872;9.688;2023-04-01T05:25:43;2.77;;;2.57;;
4957;SDS011;2494;51.872;9.688;2023-04-01T05:28:32;2.43;;;2.00;;
4957;SDS011;2494;51.872;9.688;2023-04-01T05:31:18;4.87;;;2.13;;
4957;SDS011;2494;51.872;9.688;2023-04-01T05:34:03;3.30;;;1.83;;
4957;SDS011;2494;51.872;9.688;2023-04-01T05:36:50;4.93;;;2.50;;
4957;SDS011;2494;51.872;9.688;2023-04-01T05:39:38;2.10;;;1.90;;
4957;SDS011;2494;51.872;9.688;2023-04-01T05:42:25;8.80;;;3.10;;
4957;SDS011;2494;51.872;9.688;2023-04-01T05:45:15;3.43;;;2.33;;
4957;SDS011;2494;51.872;9.688;2023-04-01T05:48:05;3.00;;;2.30;;
4957;SDS011;2494;51.872;9.688;2023-04-01T05:50:50;2.30;;;1.97;;
4957;SDS011;2494;51.872;9.688;2023-04-01T05:53:36;2.87;;;2.60;;
4957;SDS011;2494;51.872;9.688;2023-04-01T05:56:21;3.60;;;3.23;;
4957;SDS011;2494;51.872;9.688;2023-04-01T05:59:06;7.13;;;2.43;;
4957;SDS011;2494;51.872;9.688;2023-04-01T06:01:54;3.40;;;2.30;;
4957;SDS011;2494;51.872;9.688;2023-04-01T06:04:44;3.80;;;2.57;;
4957;SDS011;2494;51.872;9.688;2023-04-01T06:07:37;2.50;;;2.30;;
4957;SDS011;2494;51.872;9.688;2023-04-01T06:10:22;4.50;;;2.57;;
4957;SDS011;2494;51.872;9.688;2023-04-01T06:13:14;2.60;;;2.33;;
4957;SDS011;2494;51.872;9.688;2023-04-01T06:16:04;2.90;;;2.70;;
4957;SDS011;2494;51.872;9.688;2023-04-01T06:22:12;2.40;;;2.20;;
4957;SDS011;2494;51.872;9.688;2023-04-01T06:25:07;2.40;;;2.20;;
4957;SDS011;2494;51.872;9.688;2023-04-01T06:28:02;3.20;;;2.20;;
4957;SDS011;2494;51.872;9.688;2023-04-01T06:30:52;4.90;;;2.40;;
4957;SDS011;2494;51.872;9.688;2023-04-01T06:33:46;2.90;;;2.03;;
4957;SDS011;2494;51.872;9.688;2023-04-01T06:36:42;3.30;;;2.23;;
4957;SDS011;2494;51.872;9.688;2023-04-01T06:39:38;2.70;;;2.50;;
4957;SDS011;2494;51.872;9.688;2023-04-01T06:42:41;3.03;;;2.10;;
4957;SDS011;2494;51.872;9.688;2023-04-01T06:45:32;2.70;;;2.50;;
4957;SDS011;2494;51.872;9.688;2023-04-01T06:48:33;4.47;;;1.80;;
4957;SDS011;2494;51.872;9.688;2023-04-01T06:51:25;3.67;;;1.83;;
4957;SDS011;2494;51.872;9.688;2023-04-01T06:54:13;1.53;;;1.40;;
4957;SDS011;2494;51.872;9.688;2023-04-01T06:57:05;3.87;;;1.60;;
4957;SDS011;2494;51.872;9.688;2023-04-01T06:59:54;2.63;;;1.63;;
4957;SDS011;2494;51.872;9.688;2023-04-01T07:02:43;1.83;;;1.50;;
4957;SDS011;2494;51.872;9.688;2023-04-01T07:05:34;2.23;;;1.43;;
4957;SDS011;2494;51.872;9.688;2023-04-01T07:08:21;3.33;;;1.30;;
4957;SDS011;2494;51.872;9.688;2023-04-01T07:11:09;2.93;;;1.30;;
4957;SDS011;2494;51.872;9.688;2023-04-01T07:14:12;1.67;;;1.30;;
4957;SDS011;2494;51.872;9.688;2023-04-01T07:16:59;2.40;;;1.57;;
4957;SDS011;2494;51.872;9.688;2023-04-01T07:19:47;1.57;;;1.27;;
4957;SDS011;2494;51.872;9.688;2023-04-01T07:22:35;1.40;;;1.30;;
4957;SDS011;2494;51.872;9.688;2023-04-01T07:25:24;4.13;;;2.70;;
4957;SDS011;2494;51.872;9.688;2023-04-01T07:28:15;1.30;;;1.20;;
4957;SDS011;2494;51.872;9.688;2023-04-01T07:31:07;1.17;;;1.07;;
4957;SDS011;2494;51.872;9.688;2023-04-01T07:33:58;2.13;;;1.20;;
4957;SDS011;2494;51.872;9.688;2023-04-01T07:36:52;1.13;;;0.90;;
4957;SDS011;2494;51.872;9.688;2023-04-01T07:39:43;1.03;;;1.00;;
4957;SDS011;2494;51.872;9.688;2023-04-01T07:42:34;1.43;;;1.00;;
4957;SDS011;2494;51.872;9.688;2023-04-01T07:45:24;0.87;;;0.80;;
4957;SDS011;2494;51.872;9.688;2023-04-01T07:48:19;1.30;;;1.20;;
4957;SDS011;2494;51.872;9.688;2023-04-01T07:51:09;1.90;;;1.37;;
4957;SDS011;2494;51.872;9.688;2023-04-01T07:53:58;1.00;;;0.87;;
4957;SDS011;2494;51.872;9.688;2023-04-01T07:56:49;1.17;;;0.90;;
4957;SDS011;2494;51.872;9.688;2023-04-01T07:59:38;1.33;;;1.00;;
4957;SDS011;2494;51.872;9.688;2023-04-01T08:02:30;1.73;;;1.57;;
4957;SDS011;2494;51.872;9.688;2023-04-01T08:05:32;2.13;;;0.83;;
4957;SDS011;2494;51.872;9.688;2023-04-01T08:08:19;4.90;;;1.00;;
4957;SDS011;2494;51.872;9.688;2023-04-01T08:11:13;1.73;;;1.10;;
4957;SDS011;2494;51.872;9.688;2023-04-01T08:14:07;1.10;;;1.00;;
4957;SDS011;2494;51.872;9.688;2023-04-01T08:16:57;1.00;;;0.90;;
4957;SDS011;2494;51.872;9.688;2023-04-01T08:19:51;2.30;;;0.97;;
4957;SDS011;2494;51.872;9.688;2023-04-01T08:22:44;0.97;;;0.90;;
4957;SDS011;2494;51.872;9.688;2023-04-01T08:25:30;1.43;;;0.83;;
4957;SDS011;2494;51.872;9.688;2023-04-01T08:28:19;2.10;;;1.10;;
4957;SDS011;2494;51.872;9.688;2023-04-01T08:31:08;0.90;;;0.80;;
4957;SDS011;2494;51.872;9.688;2023-04-01T08:33:55;2.83;;;0.90;;
4957;SDS011;2494;51.872;9.688;2023-04-01T08:36:45;1.50;;;0.90;;
4957;SDS011;2494;51.872;9.688;2023-04-01T08:39:39;2.30;;;0.90;;
4957;SDS011;2494;51.872;9.688;2023-04-01T08:45:34;1.77;;;0.87;;
4957;SDS011;2494;51.872;9.688;2023-04-01T08:51:45;1.00;;;0.70;;
4957;SDS011;2494;51.872;9.688;2023-04-01T08:57:40;0.83;;;0.70;;
4957;SDS011;2494;51.872;9.688;2023-04-01T09:00:32;1.47;;;0.70;;
4957;SDS011;2494;51.872;9.688;2023-04-01T09:03:25;1.33;;;0.97;;
4957;SDS011;2494;51.872;9.688;2023-04-01T09:06:22;1.00;;;0.87;;
4957;SDS011;2494;51.872;9.688;2023-04-01T09:12:25;0.80;;;0.80;;
4957;SDS011;2494;51.872;9.688;2023-04-01T09:18:39;0.77;;;0.70;;
4957;SDS011;2494;51.872;9.688;2023-04-01T09:21:35;1.37;;;0.80;;
4957;SDS011;2494;51.872;9.688;2023-04-01T09:24:37;1.80;;;0.93;;
4957;SDS011;2494;51.872;9.688;2023-04-01T09:27:27;1.23;;;0.80;;
4957;SDS011;2494;51.872;9.688;2023-04-01T09:30:28;1.23;;;0.70;;
4957;SDS011;2494;51.872;9.688;2023-04-01T09:33:20;2.20;;;0.90;;
4957;SDS011;2494;51.872;9.688;2023-04-01T09:36:24;2.10;;;0.90;;
4957;SDS011;2494;51.872;9.688;2023-04-01T09:39:19;0.90;;;0.87;;
4957;SDS011;2494;51.872;9.688;2023-04-01T09:45:17;1.33;;;0.90;;
4957;SDS011;2494;51.872;9.688;2023-04-01T09:48:14;1.20;;;0.80;;
4957;SDS011;2494;51.872;9.688;2023-04-01T09:51:05;0.80;;;0.70;;
4957;SDS011;2494;51.872;9.688;2023-04-01T09:54:00;1.80;;;1.03;;
4957;SDS011;2494;51.872;9.688;2023-04-01T10:06:24;0.90;;;0.90;;
4957;SDS011;2494;51.872;9.688;2023-04-01T10:09:34;2.30;;;1.00;;
4957;SDS011;2494;51.872;9.688;2023-04-01T10:15:51;1.10;;;1.00;;
4957;SDS011;2494;51.872;9.688;2023-04-01T10:21:59;2.03;;;1.30;;
4957;SDS011;2494;51.872;9.688;2023-04-01T10:25:13;3.23;;;1.17;;
4957;SDS011;2494;51.872;9.688;2023-04-01T10:31:14;1.03;;;1.00;;
4957;SDS011;2494;51.872;9.688;2023-04-01T10:37:32;1.43;;;1.10;;
4957;SDS011;2494;51.872;9.688;2023-04-01T10:46:53;1.20;;;1.10;;
4957;SDS011;2494;51.872;9.688;2023-04-01T10:49:47;1.20;;;1.10;;
4957;SDS011;2494;51.872;9.688;2023-04-01T10:56:06;1.60;;;1.00;;
4957;SDS011;2494;51.872;9.688;2023-04-01T11:02:05;1.87;;;1.10;;
4957;SDS011;2494;51.872;9.688;2023-04-01T11:08:17;1.40;;;1.00;;
4957;SDS011;2494;51.872;9.688;2023-04-01T11:23:44;1.23;;;1.00;;
4957;SDS011;2494;51.872;9.688;2023-04-01T11:26:32;0.80;;;0.80;;
4957;SDS011;2494;51.872;9.688;2023-04-01T11:29:28;0.80;;;0.80;;
4957;SDS011;2494;51.872;9.688;2023-04-01T11:32:20;1.73;;;1.10;;
4957;SDS011;2494;51.872;9.688;2023-04-01T11:35:19;0.80;;;0.80;;
4957;SDS011;2494;51.872;9.688;2023-04-01T11:38:17;1.20;;;0.90;;
4957;SDS011;2494;51.872;9.688;2023-04-01T11:41:07;1.30;;;1.10;;
4957;SDS011;2494;51.872;9.688;2023-04-01T11:44:03;0.83;;;0.70;;
4957;SDS011;2494;51.872;9.688;2023-04-01T11:47:10;3.23;;;1.30;;
4957;SDS011;2494;51.872;9.688;2023-04-01T11:50:09;1.00;;;0.90;;
4957;SDS011;2494;51.872;9.688;2023-04-01T11:53:00;1.10;;;1.00;;
4957;SDS011;2494;51.872;9.688;2023-04-01T11:55:50;1.23;;;1.13;;
4957;SDS011;2494;51.872;9.688;2023-04-01T11:58:46;0.90;;;0.73;;
4957;SDS011;2494;51.872;9.688;2023-04-01T12:01:39;0.80;;;0.70;;
4957;SDS011;2494;51.872;9.688;2023-04-01T12:04:45;0.73;;;0.73;;
4957;SDS011;2494;51.872;9.688;2023-04-01T12:07:45;1.20;;;1.00;;
4957;SDS011;2494;51.872;9.688;2023-04-01T12:10:38;1.20;;;0.90;;
4957;SDS011;2494;51.872;9.688;2023-04-01T12:13:27;1.63;;;0.90;;
4957;SDS011;2494;51.872;9.688;2023-04-01T12:19:35;0.80;;;0.60;;
4957;SDS011;2494;51.872;9.688;2023-04-01T12:22:30;0.60;;;0.60;;
4957;SDS011;2494;51.872;9.688;2023-04-01T12:25:22;0.80;;;0.70;;
4957;SDS011;2494;51.872;9.688;2023-04-01T12:28:13;1.00;;;0.60;;
4957;SDS011;2494;51.872;9.688;2023-04-01T12:31:06;0.97;;;0.80;;
4957;SDS011;2494;51.872;9.688;2023-04-01T12:33:52;0.70;;;0.63;;
4957;SDS011;2494;51.872;9.688;2023-04-01T12:36:46;2.50;;;0.80;;
4957;SDS011;2494;51.872;9.688;2023-04-01T12:39:36;1.10;;;1.00;;
4957;SDS011;2494;51.872;9.688;2023-04-01T12:42:31;1.90;;;1.00;;
4957;SDS011;2494;51.872;9.688;2023-04-01T12:45:27;0.70;;;0.70;;
4957;SDS011;2494;51.872;9.688;2023-04-01T12:48:20;2.80;;;1.13;;
4957;SDS011;2494;51.872;9.688;2023-04-01T12:51:17;2.07;;;1.00;;
4957;SDS011;2494;51.872;9.688;2023-04-01T12:54:14;1.40;;;0.83;;
4957;SDS011;2494;51.872;9.688;2023-04-01T13:00:13;1.30;;;1.20;;
4957;SDS011;2494;51.872;9.688;2023-04-01T13:03:07;1.30;;;1.20;;
4957;SDS011;2494;51.872;9.688;2023-04-01T13:06:00;1.30;;;0.90;;
4957;SDS011;2494;51.872;9.688;2023-04-01T13:08:52;2.50;;;1.03;;
4957;SDS011;2494;51.872;9.688;2023-04-01T13:11:44;1.57;;;1.10;;
4957;SDS011;2494;51.872;9.688;2023-04-01T13:14:44;3.17;;;1.00;;
4957;SDS011;2494;51.872;9.688;2023-04-01T13:17:31;1.47;;;0.80;;
4957;SDS011;2494;51.872;9.688;2023-04-01T13:20:23;1.47;;;0.90;;
4957;SDS011;2494;51.872;9.688;2023-04-01T13:23:16;1.20;;;0.90;;
4957;SDS011;2494;51.872;9.688;2023-04-01T13:26:05;1.97;;;1.40;;
4957;SDS011;2494;51.872;9.688;2023-04-01T13:28:53;2.70;;;2.30;;
4957;SDS011;2494;51.872;9.688;2023-04-01T13:31:46;4.23;;;3.17;;
4957;SDS011;2494;51.872;9.688;2023-04-01T13:34:39;2.53;;;1.70;;
4957;SDS011;2494;51.872;9.688;2023-04-01T13:37:34;2.87;;;1.50;;
4957;SDS011;2494;51.872;9.688;2023-04-01T13:40:25;1.40;;;1.10;;
4957;SDS011;2494;51.872;9.688;2023-04-01T13:43:12;2.57;;;2.10;;
4957;SDS011;2494;51.872;9.688;2023-04-01T13:46:12;1.60;;;1.50;;
4957;SDS011;2494;51.872;9.688;2023-04-01T13:58:20;0.70;;;0.70;;
4957;SDS011;2494;51.872;9.688;2023-04-01T14:01:10;0.80;;;0.80;;
4957;SDS011;2494;51.872;9.688;2023-04-01T14:04:03;0.60;;;0.60;;
4957;SDS011;2494;51.872;9.688;2023-04-01T14:06:58;1.20;;;0.77;;
4957;SDS011;2494;51.872;9.688;2023-04-01T14:10:06;1.13;;;0.70;;
4957;SDS011;2494;51.872;9.688;2023-04-01T14:12:56;0.80;;;0.70;;
4957;SDS011;2494;51.872;9.688;2023-04-01T14:15:56;1.03;;;0.70;;
4957;SDS011;2494;51.872;9.688;2023-04-01T14:18:51;1.07;;;0.70;;
4957;SDS011;2494;51.872;9.688;2023-04-01T14:21:40;0.80;;;0.70;;
4957;SDS011;2494;51.872;9.688;2023-04-01T14:27:37;0.80;;;0.80;;
4957;SDS011;2494;51.872;9.688;2023-04-01T14:30:29;2.30;;;0.80;;
4957;SDS011;2494;51.872;9.688;2023-04-01T14:33:28;0.60;;;0.60;;
4957;SDS011;2494;51.872;9.688;2023-04-01T14:36:31;0.67;;;0.67;;
4957;SDS011;2494;51.872;9.688;2023-04-01T14:39:22;0.70;;;0.70;;
4957;SDS011;2494;51.872;9.688;2023-04-01T14:42:19;1.10;;;0.97;;
4957;SDS011;2494;51.872;9.688;2023-04-01T14:45:12;2.97;;;0.77;;
4957;SDS011;2494;51.872;9.688;2023-04-01T14:48:06;1.83;;;1.00;;
4957;SDS011;2494;51.872;9.688;2023-04-01T14:51:02;1.30;;;1.20;;
4957;SDS011;2494;51.872;9.688;2023-04-01T14:53:53;0.93;;;0.60;;
4957;SDS011;2494;51.872;9.688;2023-04-01T14:56:42;0.80;;;0.80;;
4957;SDS011;2494;51.872;9.688;2023-04-01T14:59:28;1.40;;;0.90;;
4957;SDS011;2494;51.872;9.688;2023-04-01T15:02:16;0.73;;;0.70;;
4957;SDS011;2494;51.872;9.688;2023-04-01T15:05:06;0.90;;;0.90;;
4957;SDS011;2494;51.872;9.688;2023-04-01T15:08:00;5.43;;;1.20;;
4957;SDS011;2494;51.872;9.688;2023-04-01T15:11:01;1.40;;;1.10;;
4957;SDS011;2494;51.872;9.688;2023-04-01T15:14:04;1.27;;;0.90;;
4957;SDS011;2494;51.872;9.688;2023-04-01T15:16:55;2.53;;;1.10;;
4957;SDS011;2494;51.872;9.688;2023-04-01T15:19:48;1.30;;;1.10;;
4957;SDS011;2494;51.872;9.688;2023-04-01T15:22:43;1.37;;;1.27;;
4957;SDS011;2494;51.872;9.688;2023-04-01T15:25:43;1.50;;;1.23;;
4957;SDS011;2494;51.872;9.688;2023-04-01T15:28:35;1.20;;;1.10;;
4957;SDS011;2494;51.872;9.688;2023-04-01T15:31:24;1.30;;;1.20;;
4957;SDS011;2494;51.872;9.688;2023-04-01T15:34:17;1.73;;;1.00;;
4957;SDS011;2494;51.872;9.688;2023-04-01T15:37:08;1.20;;;1.10;;
4957;SDS011;2494;51.872;9.688;2023-04-01T15:39:57;1.20;;;1.10;;
4957;SDS011;2494;51.872;9.688;2023-04-01T15:42:47;0.90;;;0.90;;
4957;SDS011;2494;51.872;9.688;2023-04-01T15:45:43;0.90;;;0.80;;
4957;SDS011;2494;51.872;9.688;2023-04-01T15:48:40;0.90;;;0.90;;
4957;SDS011;2494;51.872;9.688;2023-04-01T15:51:30;0.90;;;0.73;;
4957;SDS011;2494;51.872;9.688;2023-04-01T15:54:27;0.80;;;0.80;;
4957;SDS011;2494;51.872;9.688;2023-04-01T15:57:27;0.70;;;0.70;;
4957;SDS011;2494;51.872;9.688;2023-04-01T16:00:19;1.03;;;0.70;;
4957;SDS011;2494;51.872;9.688;2023-04-01T16:03:13;1.17;;;0.70;;
4957;SDS011;2494;51.872;9.688;2023-04-01T16:06:02;1.10;;;1.00;;
4957;SDS011;2494;51.872;9.688;2023-04-01T16:11:59;1.30;;;1.20;;
4957;SDS011;2494;51.872;9.688;2023-04-01T16:14:51;0.90;;;0.90;;
4957;SDS011;2494;51.872;9.688;2023-04-01T16:20:46;1.37;;;1.27;;
4957;SDS011;2494;51.872;9.688;2023-04-01T16:23:35;1.40;;;1.03;;
4957;SDS011;2494;51.872;9.688;2023-04-01T16:26:22;1.00;;;1.00;;
4957;SDS011;2494;51.872;9.688;2023-04-01T16:29:10;0.97;;;0.90;;
4957;SDS011;2494;51.872;9.688;2023-04-01T16:32:02;1.10;;;1.00;;
4957;SDS011;2494;51.872;9.688;2023-04-01T16:34:54;1.47;;;0.80;;
4957;SDS011;2494;51.872;9.688;2023-04-01T16:37:45;4.23;;;1.40;;
4957;SDS011;2494;51.872;9.688;2023-04-01T16:40:36;1.20;;;0.97;;
4957;SDS011;2494;51.872;9.688;2023-04-01T16:43:25;1.50;;;1.40;;
4957;SDS011;2494;51.872;9.688;2023-04-01T16:46:20;1.87;;;1.47;;
4957;SDS011;2494;51.872;9.688;2023-04-01T16:49:23;1.43;;;1.20;;
4957;SDS011;2494;51.872;9.688;2023-04-01T16:52:14;1.80;;;1.10;;
4957;SDS011;2494;51.872;9.688;2023-04-01T16:55:01;0.87;;;0.80;;
4957;SDS011;2494;51.872;9.688;2023-04-01T16:57:51;0.70;;;0.70;;
4957;SDS011;2494;51.872;9.688;2023-04-01T17:00:48;0.80;;;0.80;;
4957;SDS011;2494;51.872;9.688;2023-04-01T17:03:36;0.70;;;0.70;;
4957;SDS011;2494;51.872;9.688;2023-04-01T17:06:25;2.53;;;0.70;;
4957;SDS011;2494;51.872;9.688;2023-04-01T17:09:20;0.97;;;0.70;;
4957;SDS011;2494;51.872;9.688;2023-04-01T17:12:12;0.67;;;0.63;;
4957;SDS011;2494;51.872;9.688;2023-04-01T17:15:00;0.70;;;0.70;;
4957;SDS011;2494;51.872;9.688;2023-04-01T17:17:49;1.10;;;0.80;;
4957;SDS011;2494;51.872;9.688;2023-04-01T17:20:40;0.97;;;0.87;;
4957;SDS011;2494;51.872;9.688;2023-04-01T17:23:27;1.27;;;0.73;;
4957;SDS011;2494;51.872;9.688;2023-04-01T17:26:21;1.10;;;0.80;;
4957;SDS011;2494;51.872;9.688;2023-04-01T17:29:15;0.90;;;0.70;;
4957;SDS011;2494;51.872;9.688;2023-04-01T17:32:03;1.20;;;1.10;;
4957;SDS011;2494;51.872;9.688;2023-04-01T17:34:53;4.20;;;1.07;;
4957;SDS011;2494;51.872;9.688;2023-04-01T17:37:45;1.40;;;1.30;;
4957;SDS011;2494;51.872;9.688;2023-04-01T17:40:35;1.50;;;1.40;;
4957;SDS011;2494;51.872;9.688;2023-04-01T17:43:32;1.60;;;1.50;;
4957;SDS011;2494;51.872;9.688;2023-04-01T17:46:26;1.90;;;1.80;;
4957;SDS011;2494;51.872;9.688;2023-04-01T17:49:17;1.90;;;1.80;;
4957;SDS011;2494;51.872;9.688;2023-04-01T17:52:05;1.90;;;1.67;;
4957;SDS011;2494;51.872;9.688;2023-04-01T17:54:56;2.10;;;1.90;;
4957;SDS011;2494;51.872;9.688;2023-04-01T17:57:49;2.10;;;1.90;;
4957;SDS011;2494;51.872;9.688;2023-04-01T18:00:38;2.03;;;1.93;;
4957;SDS011;2494;51.872;9.688;2023-04-01T18:03:37;2.30;;;2.20;;
4957;SDS011;2494;51.872;9.688;2023-04-01T18:06:31;1.90;;;1.70;;
4957;SDS011;2494;51.872;9.688;2023-04-01T18:09:22;2.33;;;2.23;;
4957;SDS011;2494;51.872;9.688;2023-04-01T18:12:10;1.50;;;1.40;;
4957;SDS011;2494;51.872;9.688;2023-04-01T18:15:02;1.40;;;1.30;;
4957;SDS011;2494;51.872;9.688;2023-04-01T18:17:55;1.50;;;1.40;;
4957;SDS011;2494;51.872;9.688;2023-04-01T18:20:53;1.87;;;1.60;;
4957;SDS011;2494;51.872;9.688;2023-04-01T18:23:40;1.70;;;1.60;;
4957;SDS011;2494;51.872;9.688;2023-04-01T18:26:29;1.93;;;1.83;;
4957;SDS011;2494;51.872;9.688;2023-04-01T18:29:18;1.80;;;1.70;;
4957;SDS011;2494;51.872;9.688;2023-04-01T18:32:13;1.43;;;1.33;;
4957;SDS011;2494;51.872;9.688;2023-04-01T18:35:01;1.70;;;1.60;;
4957;SDS011;2494;51.872;9.688;2023-04-01T18:37:50;1.60;;;1.50;;
4957;SDS011;2494;51.872;9.688;2023-04-01T18:40:39;1.87;;;1.77;;
4957;SDS011;2494;51.872;9.688;2023-04-01T18:43:29;2.30;;;2.20;;
4957;SDS011;2494;51.872;9.688;2023-04-01T18:46:22;2.53;;;2.43;;
4957;SDS011;2494;51.872;9.688;2023-04-01T18:49:13;3.00;;;2.70;;
4957;SDS011;2494;51.872;9.688;2023-04-01T18:52:03;6.67;;;6.17;;
4957;SDS011;2494;51.872;9.688;2023-04-01T18:57:55;4.90;;;4.53;;
4957;SDS011;2494;51.872;9.688;2023-04-01T19:00:47;5.17;;;4.67;;
4957;SDS011;2494;51.872;9.688;2023-04-01T19:03:36;5.33;;;4.90;;
4957;SDS011;2494;51.872;9.688;2023-04-01T19:06:26;4.73;;;4.43;;
4957;SDS011;2494;51.872;9.688;2023-04-01T19:09:17;5.13;;;4.73;;
4957;SDS011;2494;51.872;9.688;2023-04-01T19:12:07;7.00;;;6.40;;
4957;SDS011;2494;51.872;9.688;2023-04-01T19:21:04;5.10;;;4.60;;
4957;SDS011;2494;51.872;9.688;2023-04-01T19:26:56;4.73;;;4.43;;
4957;SDS011;2494;51.872;9.688;2023-04-01T19:29:50;2.90;;;2.70;;
4957;SDS011;2494;51.872;9.688;2023-04-01T19:32:42;3.80;;;3.57;;
4957;SDS011;2494;51.872;9.688;2023-04-01T19:35:33;5.80;;;5.40;;
4957;SDS011;2494;51.872;9.688;2023-04-01T19:38:26;7.57;;;6.93;;